Date,TemperatureHighF,TemperatureAvgF,TemperatureLowF,DewpointHighF,DewpointAvgF,DewpointLowF,HumidityHigh,HumidityAvg,HumidityLow,PressureMaxIn,PressureMinIn,WindSpeedMaxMPH,WindSpeedAvgMPH,GustSpeedMaxMPH,PrecipitationSumIn
2012-1-1,39,26,17,9,5,-2,68,43,21,24.48,24.19,13,3,17,0.00
2012-1-2,51,30,16,17,13,8,77,52,24,24.48,24.19,9,2,11,0.00
2012-1-3,55,44,28,19,14,10,52,30,20,24.30,24.10,13,3,15,0.00
2012-1-4,58,42,27,19,13,8,54,32,19,24.30,24.21,9,3,13,0.00
2012-1-5,61,46,32,23,18,14,51,33,21,23.92,23.92,15,3,17,0.00
2012-1-6,54,37,23,18,15,12,69,43,23,24.04,23.92,14,3,19,0.00
2012-1-7,36,27,18,29,19,14,96,75,44,24.10,23.89,12,1,14,0.00
2012-1-8,31,20,12,30,16,7,96,86,79,24.16,24.04,5,0,5,0.00
2012-1-9,43,26,17,43,23,12,98,88,79,24.21,24.13,8,0,8,0.00
2012-1-10,54,34,25,26,17,10,84,55,20,24.13,23.83,8,2,13,0.04
2012-1-11,34,17,0,18,10,-4,84,74,42,24.07,23.83,15,3,15,0.04
2012-1-12,36,24,4,24,8,-2,88,56,25,24.07,23.95,19,4,19,0.00
2012-1-13,41,35,18,6,2,-2,44,25,21,24.07,23.95,26,5,26,0.00
2012-1-14,55,43,33,15,10,2,43,26,20,24.10,23.92,22,3,22,0.00
2012-1-15,54,40,27,14,10,6,46,29,18,23.92,23.71,12,3,13,0.00
2012-1-16,32,24,17,20,11,-3,87,60,35,23.95,23.59,15,4,17,0.00
2012-1-17,31,22,15,-1,-5,-9,44,30,23,24.07,23.92,19,5,22,0.00
2012-1-18,46,39,30,14,8,-2,34,27,23,23.92,23.71,29,6,29,0.00
2012-1-19,57,47,38,24,20,13,54,35,26,23.80,23.59,35,6,37,0.00
2012-1-20,50,43,31,21,17,12,53,35,28,23.95,23.59,25,5,28,0.00
2012-1-21,59,46,30,23,18,10,52,33,22,23.89,23.36,15,4,17,0.00
2012-1-22,44,37,34,18,9,2,43,31,25,23.83,23.36,33,5,33,0.00
2012-1-23,49,37,27,14,9,2,50,32,21,23.89,23.77,15,3,19,0.00
2012-1-24,36,29,20,25,16,9,78,57,34,24.16,23.80,10,1,11,0.00
2012-1-25,56,42,20,17,11,2,72,29,20,24.13,23.98,25,4,25,0.00
2012-1-26,54,43,33,24,13,8,52,31,20,24.10,23.74,17,4,22,0.00
2012-1-27,40,28,16,22,14,4,86,57,32,24.21,23.80,14,5,22,0.00
2012-1-28,41,34,16,7,0,-4,64,24,21,24.19,24.07,26,6,26,0.00
2012-1-29,50,44,38,14,9,2,29,23,21,24.19,24.01,20,4,20,0.00
2012-1-30,57,43,31,16,11,5,38,26,19,24.01,23.83,18,3,18,0.00
2012-1-31,45,36,29,14,10,6,42,33,28,24.07,23.92,13,2,13,0.00
2012-2-1,49,37,29,13,9,5,42,31,21,24.10,24.01,13,2,15,0.00
2012-2-2,43,33,27,27,12,6,92,46,26,24.04,23.89,13,2,18,0.00
2012-2-3,29,26,25,27,24,23,94,93,91,24.27,24.04,10,2,13,0.00
2012-2-4,31,22,12,28,19,7,92,87,79,24.30,24.24,8,1,8,0.00
2012-2-5,32,16,5,29,12,0,92,82,78,24.30,24.10,9,1,11,0.00
2012-2-6,36,22,9,34,18,4,97,84,55,24.19,24.01,10,1,12,0.00
2012-2-7,22,20,13,18,17,8,87,85,79,0.00,40.00,8,2,8,0.00
2012-2-8,49,26,6,35,14,0,94,64,29,0.00,40.00,15,2,19,0.00
2012-2-9,42,32,18,16,12,7,65,44,30,24.13,24.04,11,2,12,0.04
2012-2-10,42,24,16,16,11,5,83,58,29,24.16,24.04,13,4,15,0.00
2012-2-11,16,10,4,11,4,-2,81,77,73,24.21,24.01,12,3,14,0.00
2012-2-12,33,19,4,30,13,-2,91,78,53,24.01,23.65,9,1,10,0.04
2012-2-13,40,29,20,31,20,13,93,71,43,23.77,23.65,13,2,15,0.04
2012-2-14,48,28,17,17,13,9,77,55,28,23.80,23.65,13,2,14,0.08
2012-2-15,31,24,16,22,14,11,84,69,49,24.07,23.80,12,2,12,0.08
2012-2-16,45,26,10,19,10,4,82,55,25,24.13,24.01,17,2,20,0.00
2012-2-17,40,28,18,24,10,4,88,50,23,24.13,24.01,11,3,15,0.00
2012-2-18,42,24,11,22,10,6,87,58,29,23.86,23.86,10,2,11,0.00
2012-2-19,39,30,21,17,10,3,61,43,32,23.86,23.59,15,2,15,0.00
2012-2-20,36,30,26,22,4,-2,76,33,24,23.89,23.62,25,4,25,0.00
2012-2-21,45,38,31,14,9,3,31,29,28,23.86,23.74,32,7,32,0.00
2012-2-22,56,48,42,21,16,13,33,29,25,23.77,23.54,28,8,32,0.00
2012-2-23,30,26,18,28,24,14,94,91,83,23.98,23.83,13,2,14,0.00
2012-2-24,41,35,27,25,8,4,87,36,23,24.10,24.07,20,6,20,0.00
2012-2-25,63,46,25,20,11,1,49,25,16,23.83,23.62,23,5,23,0.08
2012-2-26,37,28,17,2,-2,-7,34,27,22,24.13,23.83,18,5,23,0.00
2012-2-27,45,26,11,13,0,-11,39,32,25,24.16,23.86,14,2,14,0.00
2012-2-28,44,37,32,23,12,5,62,35,28,23.83,23.54,24,5,24,0.00
2012-2-29,50,39,29,15,8,3,33,28,21,23.83,23.77,28,8,28,0.00
2012-3-1,43,31,26,20,14,7,67,50,26,23.77,23.68,19,4,19,0.00
2012-3-2,34,25,14,13,1,-6,56,36,25,23.98,23.77,17,3,17,0.00
2012-3-3,39,29,22,9,1,-7,32,29,27,24.01,23.95,27,6,32,0.00
2012-3-4,57,46,34,19,14,8,35,27,20,24.16,24.10,20,5,26,0.00
2012-3-5,62,48,32,16,12,6,35,24,16,24.13,23.80,17,4,20,0.00
2012-3-6,69,48,34,23,13,7,38,25,15,23.80,23.51,16,3,18,0.00
2012-3-7,44,28,24,25,22,10,90,79,30,24.16,23.65,15,3,16,0.00
2012-3-8,46,31,20,24,11,5,85,46,22,24.42,24.16,8,1,10,0.00
2012-3-9,58,37,22,16,10,5,53,35,17,24.39,24.16,11,2,11,0.00
2012-3-10,65,42,26,21,15,6,54,35,16,24.16,23.86,15,2,15,0.00
2012-3-11,61,46,32,27,18,6,62,36,17,23.86,23.68,13,2,19,0.00
2012-3-12,64,52,35,20,15,8,41,24,18,24.01,23.71,23,4,25,0.00
2012-3-13,70,49,34,23,15,10,39,28,17,23.98,23.83,13,3,15,0.00
2012-3-15,68,60,50,22,19,14,28,20,17,24.13,24.01,13,4,15,0.00
2012-3-16,71,59,41,24,20,12,34,23,17,23.98,23.83,12,2,15,0.00
2012-3-17,71,51,34,24,16,9,42,27,17,23.89,23.65,13,2,13,0.00
2012-3-18,66,49,32,24,16,4,45,28,18,23.71,23.42,16,3,23,0.00
2012-3-19,44,37,28,8,4,1,32,25,20,23.74,23.51,11,3,13,0.00
2012-3-20,49,37,27,14,8,0,38,29,21,24.01,23.74,11,2,15,0.00
2012-3-21,61,42,27,21,12,2,45,30,19,24.07,23.95,13,3,15,0.00
2012-3-22,64,45,30,20,17,12,57,36,18,24.07,23.92,11,2,15,0.00
2012-3-23,74,50,32,25,19,14,49,32,16,24.07,23.98,11,3,13,0.00
2012-3-24,70,59,41,25,23,20,52,27,17,24.19,24.10,14,2,15,0.00
2012-3-25,69,50,35,34,29,24,72,47,23,24.19,23.98,10,1,10,0.00
2012-3-26,76,53,38,28,21,9,63,34,15,23.98,23.59,22,4,26,0.00
2012-3-27,68,51,36,22,15,5,35,24,17,24.07,23.83,17,2,18,0.00
2012-3-28,71,50,32,25,18,12,45,30,17,24.07,23.89,10,1,11,0.00
2012-3-29,68,53,39,24,18,10,33,25,17,24.04,23.89,15,2,18,0.00
2012-3-30,74,69,51,25,23,18,27,17,16,23.98,23.89,15,4,18,0.00
2012-3-31,78,63,45,30,23,14,38,23,15,24.01,23.80,14,3,15,0.00
2012-4-1,78,59,41,27,19,12,30,22,15,23.59,23.59,11,3,12,0.00
2012-4-2,54,41,33,29,22,13,82,49,24,24.19,23.59,16,4,16,0.04
2012-4-3,34,32,31,31,29,26,96,87,81,24.21,24.10,9,0,10,0.04
2012-4-4,60,42,28,46,34,27,98,79,34,24.07,23.89,8,1,8,0.39
2012-4-5,67,55,40,35,30,27,67,40,24,23.95,23.86,10,2,10,0.00
2012-4-6,73,54,34,35,22,4,78,34,15,24.07,23.71,28,4,28,0.00
2012-4-7,60,44,28,20,11,0,47,27,17,24.27,24.07,15,3,24,0.00
2012-4-8,69,48,28,22,16,8,46,30,15,24.30,24.19,13,2,14,0.00
2012-4-9,63,46,30,26,19,9,54,35,23,24.24,24.16,12,2,13,0.00
2012-4-10,72,51,32,35,28,20,70,44,22,24.21,24.07,10,2,12,0.00
2012-4-11,64,50,36,44,34,26,83,57,35,24.13,23.86,11,2,13,0.16
2012-4-12,63,50,38,45,28,14,94,51,21,23.89,23.74,14,3,17,0.00
2012-4-13,62,50,38,21,16,11,40,26,19,23.89,23.77,23,3,24,0.00
2012-4-14,55,42,31,33,24,18,84,52,28,23.80,23.59,17,2,20,0.28
2012-4-15,49,38,33,41,31,21,95,78,37,24.07,23.65,13,1,17,0.31
2012-4-16,57,43,32,38,24,15,95,54,24,24.19,24.04,20,2,20,0.00
2012-4-17,66,50,34,26,22,20,64,36,18,24.19,24.07,17,2,20,0.00
2012-4-18,68,51,34,28,25,22,70,38,22,24.16,23.92,11,2,13,0.00
2012-4-19,62,50,41,36,27,21,76,41,24,24.13,23.98,13,3,14,0.00
2012-4-20,67,52,35,35,28,23,80,43,23,24.19,24.10,15,4,17,0.00
2012-4-21,71,60,48,30,26,20,50,28,22,24.30,24.07,17,4,17,0.00
2012-4-22,71,53,36,33,30,27,78,45,22,24.33,24.21,10,2,11,0.00
2012-4-23,78,59,41,34,28,24,56,34,15,24.27,24.10,11,2,12,0.00
2012-4-24,82,64,46,35,26,22,41,26,14,24.10,23.95,16,3,20,0.00
2012-4-25,79,60,44,32,26,18,40,28,15,24.13,23.98,11,2,13,0.00
2012-4-26,76,62,49,45,32,27,87,34,20,24.10,23.77,16,3,16,0.08
2012-4-27,59,52,40,48,29,10,93,47,24,23.98,23.77,22,4,26,0.08
2012-4-28,62,48,36,22,14,8,47,27,17,24.04,23.92,18,4,34,0.08
2012-4-29,61,44,30,28,25,20,75,48,25,24.13,24.01,10,2,13,0.08
2012-4-30,74,55,32,26,20,12,60,29,16,24.10,23.89,13,2,17,0.00
2012-5-1,76,60,43,30,22,13,38,24,15,23.92,23.80,17,3,17,0.08
2012-5-2,71,59,45,33,29,25,51,33,22,24.01,23.89,10,2,11,0.00
2012-5-3,77,61,41,33,28,22,59,31,18,24.07,23.92,11,2,12,0.08
2012-5-4,84,64,42,31,25,19,40,25,14,24.04,23.92,13,3,14,0.08
2012-5-5,77,63,43,34,25,13,37,24,15,24.16,23.92,17,3,19,0.00
2012-5-6,55,48,41,38,22,7,87,40,21,24.27,24.16,14,3,14,0.39
2012-5-7,45,41,35,38,35,30,89,80,60,24.33,24.21,8,1,9,0.47
2012-5-8,61,47,32,41,29,22,95,58,25,24.27,24.16,10,2,10,0.87
2012-5-9,74,55,35,33,27,22,79,41,16,24.21,24.01,13,2,13,0.00
2012-5-10,79,63,41,31,24,19,43,25,15,24.07,23.86,16,3,17,0.00
2012-5-11,58,44,36,34,25,19,88,49,27,24.30,24.07,17,4,17,0.24
2012-5-12,46,40,36,40,37,34,94,87,74,24.33,24.27,8,1,8,0.08
2012-5-13,59,46,37,47,37,30,96,74,36,24.33,24.27,9,1,9,0.04
2012-5-14,73,53,34,35,26,20,89,45,16,24.33,24.21,8,2,10,0.35
2012-5-15,77,57,37,31,25,19,59,32,15,24.30,24.19,11,3,12,0.35
2012-5-16,80,60,42,39,27,22,52,31,15,24.21,24.04,14,2,17,0.00
2012-5-17,78,63,49,32,28,25,45,28,18,24.04,23.89,15,3,15,0.00
2012-5-18,76,61,44,34,28,24,50,30,18,23.92,23.74,15,3,19,0.35
2012-5-19,59,48,39,43,37,24,93,68,27,24.24,23.89,15,2,22,0.16
2012-5-20,69,52,36,52,36,29,97,62,23,24.27,24.21,11,1,12,0.00
2012-5-21,82,61,40,39,33,26,77,41,15,24.27,24.13,13,2,14,0.00
2012-5-22,88,64,47,48,31,21,60,32,13,24.13,23.80,12,2,14,0.51
2012-5-23,68,53,43,46,35,21,91,55,20,23.89,23.77,13,2,18,0.43
2012-5-24,69,52,40,44,28,21,94,47,17,23.98,23.77,17,4,17,0.00
2012-5-25,56,49,44,36,32,28,63,52,39,23.98,23.95,9,2,9,0.94
2012-5-26,86,63,41,49,36,19,92,46,13,23.95,23.65,15,3,15,0.00
2012-5-27,69,57,40,22,15,6,33,19,15,23.95,23.80,20,4,20,0.00
2012-5-28,74,60,45,25,19,11,33,21,16,24.16,24.01,16,4,20,0.00
2012-5-29,68,47,36,28,21,16,52,36,22,24.24,24.16,12,2,12,0.00
2012-5-30,80,63,43,31,26,20,48,27,15,24.21,24.04,15,4,17,0.00
2012-5-31,69,54,40,36,31,28,70,44,25,24.24,24.13,13,2,13,0.00
2012-6-1,76,65,45,39,33,31,61,32,21,24.16,24.04,13,3,15,0.00
2012-6-2,74,60,45,43,36,31,73,44,25,24.16,24.01,26,2,26,0.00
2012-6-3,84,69,52,43,33,27,47,28,16,24.16,24.04,22,3,22,0.00
2012-6-4,87,70,50,38,32,26,47,26,13,24.19,24.07,19,3,32,0.00
2012-6-5,84,69,50,37,33,26,47,27,19,24.13,23.92,22,4,23,0.00
2012-6-6,79,65,49,51,36,27,62,35,21,24.07,23.95,17,3,21,0.00
2012-6-7,80,65,54,52,44,35,71,47,27,24.19,24.04,14,2,17,0.00
2012-6-8,88,71,51,46,36,25,78,34,13,31.01,22.77,13,2,13,0.00
2012-6-9,92,72,50,34,26,17,37,19,12,19.22,17.72,11,3,12,0.00
2012-6-10,72,62,48,31,24,13,29,24,18,17.72,17.72,22,5,22,0.00
2012-6-11,75,59,41,26,20,12,42,22,16,17.72,17.72,17,4,17,0.00
2012-6-12,83,63,42,31,24,17,46,25,14,17.72,17.72,15,2,17,0.00
2012-6-13,87,68,46,31,24,15,30,19,13,0.00,40.00,9,3,13,0.00
2012-6-14,78,66,51,34,25,12,27,21,17,17.72,17.72,12,4,14,0.00
2012-6-15,82,68,55,41,33,24,51,29,14,17.72,17.72,20,2,20,0.00
2012-6-16,80,64,54,40,34,24,46,34,20,17.72,17.72,12,3,13,0.00
2012-6-17,93,74,50,33,28,20,39,21,12,17.72,17.72,22,4,29,0.00
2012-6-18,95,80,58,33,27,16,25,15,11,17.72,17.72,15,3,17,0.00
2012-6-19,91,80,63,32,28,20,24,15,12,17.72,17.72,16,4,17,0.00
2012-6-20,69,61,52,46,34,18,75,39,17,17.72,17.72,9,3,10,0.00
2012-6-21,84,68,50,38,33,26,43,28,20,17.72,17.72,11,2,13,0.00
2012-6-22,97,73,49,41,32,20,47,25,11,17.72,17.72,13,3,14,0.00
2012-6-23,99,80,55,35,27,16,28,16,10,17.72,17.72,13,3,15,0.00
2012-6-24,97,80,60,34,28,18,22,15,11,17.72,17.72,15,3,16,0.00
2012-6-25,98,79,58,38,31,22,35,19,11,17.72,17.72,15,3,17,0.00
2012-6-26,95,77,62,55,34,22,62,24,11,17.72,17.72,23,3,23,0.04
2012-6-27,91,73,59,51,40,34,59,34,14,17.72,17.72,17,2,26,0.00
2012-6-28,88,71,54,45,38,34,62,33,18,17.72,17.72,15,2,15,0.00
2012-6-29,92,76,60,43,33,19,35,22,8,17.72,17.72,14,3,18,0.00
2012-6-30,90,75,56,37,31,26,36,21,12,17.72,17.72,15,2,15,0.00
2012-7-1,97,78,56,37,31,23,35,20,11,17.72,17.72,15,3,18,0.00
2012-7-2,93,74,59,52,37,28,65,29,14,17.72,17.72,17,2,23,0.00
2012-7-3,87,73,60,47,39,32,55,31,19,17.72,17.72,17,2,20,0.00
2012-7-4,66,65,64,36,36,35,34,33,33,17.72,17.72,4,3,4,0.00
2012-7-11,85,74,62,48,42,36,50,33,19,24.21,0.00,9,2,9,0.00
2012-7-12,87,68,54,62,44,36,83,50,18,24.21,24.13,13,2,13,0.08
2012-7-13,90,71,52,49,41,30,76,41,13,24.21,24.13,12,2,13,0.04
2012-7-14,88,71,54,46,39,34,58,33,15,24.19,24.10,17,2,17,0.00
2012-7-15,87,72,59,48,40,37,62,34,18,24.13,24.04,11,3,17,0.04
2012-7-16,87,67,55,58,45,35,91,53,19,24.07,24.07,10,2,13,0.35
2012-7-17,84,68,57,60,46,37,84,51,20,24.13,24.01,11,2,11,0.08
2012-7-18,87,70,53,48,41,34,75,41,16,24.19,24.13,12,2,12,0.00
2012-7-19,93,74,55,45,39,36,58,32,14,24.21,24.16,10,2,13,0.00
2012-7-20,95,76,57,47,38,34,54,29,14,24.24,24.16,13,3,13,0.43
2012-7-21,94,74,57,59,41,34,87,36,14,24.24,24.13,10,2,13,0.04
2012-7-22,88,71,56,54,43,37,72,40,19,24.27,24.16,12,2,13,0.47
2012-7-23,91,72,57,51,41,34,65,36,17,24.24,24.13,12,3,17,0.00
2012-7-24,89,72,57,55,41,36,84,35,18,24.13,23.98,13,2,14,0.12
2012-7-25,84,69,58,57,46,38,91,49,21,24.16,24.04,15,2,22,0.00
2012-7-26,85,69,53,49,43,35,80,44,20,24.24,24.13,10,2,12,0.00
2012-7-27,85,68,54,62,43,36,87,43,20,24.27,24.16,21,3,29,0.12
2012-7-28,86,71,58,48,41,36,70,38,19,24.27,24.16,13,3,14,0.00
2012-7-29,83,67,58,59,48,37,92,56,20,24.24,24.24,9,2,10,0.12
2012-7-30,80,65,54,64,54,38,94,72,23,24.24,24.19,8,1,10,0.24
2012-7-31,92,72,56,54,46,36,85,46,14,24.24,24.13,12,2,15,0.00
2012-8-1,89,72,59,60,45,37,84,43,18,24.21,24.13,11,2,13,0.04
2012-8-2,85,67,56,59,45,34,87,51,19,24.19,24.07,12,3,17,0.12
2012-8-3,90,74,56,47,34,24,72,28,12,24.13,23.98,17,4,17,0.12
2012-8-4,78,65,56,40,37,32,53,36,21,24.27,24.13,13,3,15,0.00
2012-8-5,91,70,50,39,37,30,67,34,13,24.30,24.19,11,2,12,0.00
2012-8-6,93,76,61,40,35,31,37,24,13,24.30,24.21,15,3,15,0.00
2012-8-7,88,74,60,43,36,31,44,26,15,24.27,24.19,13,3,16,0.00
2012-8-8,90,72,55,37,30,25,36,23,12,24.30,24.21,12,3,13,0.00
2012-8-9,84,69,52,44,34,25,39,28,20,24.30,24.16,13,2,13,0.00
2012-8-10,88,72,56,41,37,34,51,30,18,24.24,24.10,11,2,15,0.00
2012-8-11,88,71,54,55,40,33,92,39,15,24.24,24.07,14,2,17,0.31
2012-8-12,81,65,49,58,41,30,95,52,17,24.27,24.19,13,1,13,0.32
2012-8-13,78,64,53,40,36,33,51,37,21,24.27,24.13,17,2,19,0.00
2012-8-14,91,71,54,43,34,27,51,30,12,24.13,24.01,11,3,15,0.00
2012-8-15,91,72,58,41,33,28,45,27,12,24.24,24.01,15,4,15,0.32
2012-8-16,70,60,51,48,39,35,71,47,32,24.27,24.16,10,3,11,0.00
2012-8-17,82,62,45,49,39,35,89,49,20,24.21,24.07,10,2,10,0.32
2012-8-18,76,63,52,38,32,28,53,33,21,24.24,24.13,9,2,11,0.00
2012-8-19,78,62,45,32,29,26,51,31,18,24.21,24.13,10,2,11,0.00
2012-8-20,80,64,49,41,32,25,46,31,20,24.16,24.07,11,2,16,0.00
2012-8-21,84,66,49,37,33,26,56,32,16,24.19,24.10,11,2,14,0.00
2012-8-22,87,70,54,50,36,28,58,30,16,24.10,24.01,13,3,20,0.32
2012-8-23,77,66,55,55,45,37,89,53,24,24.13,24.01,9,1,10,0.00
2012-8-24,82,68,53,43,37,30,60,36,19,24.04,23.95,23,2,26,0.00
2012-8-25,77,66,56,35,32,25,43,28,22,24.16,23.98,12,3,13,0.00
2012-8-26,89,69,50,35,29,24,50,26,13,24.21,24.10,14,3,14,0.00
2012-8-27,90,71,53,39,31,22,36,24,15,24.27,24.21,14,2,17,0.32
2012-8-28,89,73,56,40,35,31,39,26,15,24.27,24.19,13,2,13,0.00
2012-8-29,89,73,58,61,37,32,77,29,15,24.19,24.07,11,2,14,0.04
2012-8-30,86,73,61,42,36,31,38,26,18,24.19,24.07,15,2,15,0.35
2012-8-31,89,70,52,38,33,29,49,28,13,24.19,24.07,16,2,16,0.35
2012-9-1,83,67,54,58,38,29,82,36,19,24.19,24.07,16,2,30,0.08
2012-9-2,86,70,57,44,37,31,56,33,16,24.16,24.10,14,2,14,0.00
2012-9-3,85,69,56,40,33,26,46,29,13,24.19,24.13,17,3,22,0.43
2012-9-4,88,67,51,35,27,17,39,24,13,24.19,24.07,13,2,18,0.00
2012-9-5,82,64,46,29,22,14,29,20,14,24.24,24.07,17,3,17,0.00
2012-9-6,89,70,51,32,24,15,26,18,13,24.16,24.01,16,3,16,0.00
2012-9-7,68,57,47,46,36,22,80,48,20,24.36,24.13,13,2,13,0.43
2012-9-8,76,58,42,40,32,22,83,45,18,24.36,24.24,10,1,10,0.43
2012-9-9,86,63,43,32,26,21,46,27,13,24.30,24.10,10,2,13,0.00
2012-9-10,89,72,56,33,27,21,26,19,13,24.13,23.98,13,3,13,0.43
2012-9-11,81,67,57,54,34,23,88,35,17,24.10,23.98,13,2,23,0.08
2012-9-12,57,52,50,54,49,45,90,88,85,24.36,24.10,8,2,14,0.79
2012-9-13,68,54,44,47,38,26,90,61,23,24.45,24.33,8,2,9,0.00
2012-9-14,74,56,40,37,31,23,76,46,16,24.45,24.30,11,2,13,0.00
2012-9-15,85,61,42,36,28,23,57,33,13,24.30,24.13,10,2,10,0.00
2012-9-16,84,64,47,33,25,18,36,24,14,24.19,24.04,25,3,25,0.00
2012-9-17,62,54,44,37,32,23,75,44,24,24.21,24.13,13,2,14,0.00
2012-9-18,74,55,39,36,30,24,79,45,18,24.21,24.10,13,2,13,0.00
2012-9-19,77,61,47,33,26,22,40,28,15,24.21,24.13,10,3,10,0.00
2012-9-20,77,59,45,30,25,22,44,29,15,24.21,24.13,11,2,13,1.30
2012-9-21,76,58,43,31,26,21,43,30,18,24.24,24.16,9,2,10,0.00
2012-9-22,74,56,41,34,28,24,53,36,21,24.30,24.19,9,2,10,0.00
2012-9-23,85,64,45,33,27,22,53,28,13,24.21,24.10,13,3,14,1.30
2012-9-24,76,64,54,32,29,25,41,27,20,24.13,23.98,11,1,12,0.00
2012-9-25,68,55,45,46,34,28,83,47,26,24.10,24.01,12,2,12,0.31
2012-9-26,58,52,48,51,46,34,90,78,48,24.19,24.07,11,1,12,0.24
2012-9-27,64,50,41,52,43,35,93,78,38,24.21,24.16,9,1,10,0.04
2012-9-28,68,52,40,52,38,31,94,67,27,24.22,24.13,10,1,13,0.59
2012-9-29,73,55,41,39,35,29,85,51,22,24.19,24.10,9,1,11,0.00
2012-9-30,69,56,47,41,34,28,71,46,23,24.24,24.16,11,2,11,0.00
2012-10-1,65,54,43,43,35,31,81,52,29,24.30,24.19,11,1,11,0.00
2012-10-2,82,59,40,34,28,21,77,38,14,24.19,23.95,13,3,15,0.00
2012-10-3,81,58,37,31,24,18,50,30,15,24.27,23.89,19,4,21,0.00
2012-10-4,41,37,35,21,18,16,55,46,40,24.27,24.16,10,3,13,0.00
2012-10-5,36,33,29,29,24,18,86,72,52,24.21,24.10,10,2,11,0.00
2012-10-6,33,31,30,31,28,25,94,86,79,24.21,24.13,8,2,10,0.00
2012-10-7,50,35,25,31,22,16,85,63,28,24.16,24.01,8,1,8,0.08
2012-10-8,70,53,36,23,16,10,40,24,15,24.01,23.86,15,4,19,0.00
2012-10-9,57,43,36,27,23,10,67,46,20,24.16,23.89,11,3,14,0.00
2012-10-10,60,43,31,33,28,22,78,58,34,24.13,23.98,14,1,14,0.00
2012-10-11,60,48,40,32,25,21,56,42,26,24.21,24.04,11,2,12,0.00
2012-10-12,63,46,33,38,30,24,82,57,34,24.19,23.92,16,2,16,0.00
2012-10-13,55,50,42,43,28,19,79,46,28,24.13,23.89,15,2,19,0.08
2012-10-14,66,49,37,42,29,22,85,51,23,24.24,24.13,14,2,15,0.00
2012-10-15,74,56,40,30,23,17,59,33,16,24.16,23.92,18,3,26,0.08
2012-10-16,73,61,43,37,25,17,66,27,16,23.95,23.65,17,4,19,0.04
2012-10-17,53,48,40,33,13,7,65,25,18,24.01,23.77,23,5,28,0.12
2012-10-18,63,50,37,20,12,4,34,22,18,24.10,24.01,17,5,26,0.00
2012-10-19,68,58,38,23,19,12,39,22,17,24.07,23.89,22,3,22,0.12
2012-10-20,75,61,47,26,19,12,28,19,16,23.92,23.77,12,3,16,0.00
2012-10-21,65,50,39,24,18,11,47,28,18,23.98,23.83,15,2,15,0.00
2012-10-22,61,45,33,31,25,18,65,47,30,23.98,23.80,11,2,14,0.12
2012-10-23,74,53,36,25,19,12,45,29,15,23.95,23.74,15,3,24,0.00
2012-10-24,46,41,32,33,24,17,95,53,34,23.98,23.80,17,2,17,0.28
2012-10-25,32,28,27,31,27,26,96,94,94,24.13,24.10,11,1,11,0.00
2012-10-26,34,29,23,32,27,20,95,93,90,24.30,24.10,10,3,14,0.00
2012-10-27,44,32,22,39,26,18,95,80,38,24.10,24.01,14,2,16,0.16
2012-10-28,57,44,30,31,24,19,89,49,27,24.07,24.01,15,3,17,0.12
2012-10-29,63,52,40,31,25,21,54,36,25,24.13,24.07,13,2,16,0.00
2012-10-30,68,50,35,33,24,20,67,39,17,24.16,24.07,10,2,13,0.28
2012-10-31,67,48,37,28,24,20,55,41,22,24.16,24.10,8,2,9,0.00
2012-11-1,69,48,34,32,23,17,59,40,17,24.16,23.95,10,2,12,0.28
2012-11-2,61,46,34,24,20,16,59,38,21,24.16,23.98,10,1,11,0.00
2012-11-3,52,39,30,30,24,20,75,56,36,24.16,24.10,9,2,11,0.00
2012-11-4,62,45,32,24,19,15,60,38,21,24.27,24.13,15,2,15,0.00
2012-11-5,64,49,30,37,23,19,81,42,23,24.27,24.10,13,2,16,0.00
2012-11-6,62,50,39,27,22,17,46,34,25,24.24,24.16,13,2,13,0.00
2012-11-7,68,48,35,27,19,11,48,33,18,24.16,23.98,9,2,13,0.00
2012-11-8,54,44,31,21,18,11,63,36,25,24.04,23.86,11,2,12,0.00
2012-11-9,58,41,30,29,22,14,65,47,27,23.86,23.59,13,2,15,0.00
2012-11-10,55,37,21,31,23,16,92,65,26,23.80,23.51,15,2,17,0.00
2012-11-11,32,24,16,18,6,-4,85,51,25,24.07,23.80,20,2,26,0.00
2012-11-12,48,34,24,11,3,-4,42,27,19,24.19,24.07,17,4,24,0.04
2012-11-13,50,36,26,14,10,5,54,34,24,24.21,24.13,15,2,17,0.00
2012-11-14,58,35,23,20,14,8,55,42,19,24.19,24.04,13,2,15,0.04
2012-11-15,40,32,25,24,18,11,78,57,40,24.33,24.16,9,1,9,0.00
2012-11-16,53,36,23,24,17,11,78,48,28,24.24,24.07,8,2,9,0.00
2012-11-17,60,43,32,25,20,12,57,41,24,24.10,24.04,13,2,14,0.00
2012-11-18,57,42,30,24,18,13,60,40,25,24.10,23.98,17,3,20,0.00
2012-11-19,54,42,33,22,17,12,51,37,26,24.21,24.10,9,2,9,0.00
2012-11-20,63,42,32,22,15,10,47,34,19,24.19,24.07,8,2,13,0.00
2012-11-21,66,46,37,21,12,4,33,25,18,24.07,23.92,9,2,9,0.00
2012-11-22,58,42,27,21,13,2,38,30,22,24.36,23.95,15,4,17,0.00
2012-11-23,54,33,20,16,8,2,47,35,20,24.39,24.16,12,2,14,0.00
2012-11-24,61,54,40,18,12,5,26,19,16,24.16,23.98,18,4,25,0.00
2012-11-25,60,48,30,15,10,1,35,22,17,23.98,23.80,22,3,22,0.00
2012-11-26,32,27,23,23,20,6,86,74,36,24.24,23.98,11,2,11,0.00
2012-11-27,58,41,22,22,7,-2,80,27,17,24.19,24.10,14,2,17,0.00
2012-11-28,59,46,32,14,7,-1,25,20,17,24.19,24.04,15,2,16,0.00
2012-11-29,62,50,37,21,14,7,33,24,19,24.07,23.98,16,3,16,0.00
2012-11-30,58,45,35,20,14,9,40,29,20,24.07,23.86,13,2,13,0.00
2012-12-1,62,54,41,23,17,10,31,24,19,24.04,23.86,17,4,17,0.00
2012-12-2,58,46,34,18,10,3,30,23,19,24.01,23.71,12,2,15,0.00
2012-12-3,56,48,37,20,11,2,28,22,19,24.13,23.71,17,3,27,0.00
2012-12-4,55,41,24,15,7,-2,32,25,18,24.24,24.13,17,2,20,0.00
2012-12-5,65,54,43,25,18,10,37,25,18,24.13,23.89,20,3,21,0.00
2012-12-6,53,41,28,25,20,15,72,45,26,24.04,23.86,13,3,15,0.00
2012-12-7,50,38,27,21,15,11,65,39,27,23.92,23.80,15,3,17,0.00
2012-12-8,45,33,22,24,11,0,69,41,25,23.86,23.65,18,3,18,0.00
2012-12-9,26,18,9,0,-5,-13,40,34,27,24.07,23.86,11,3,13,0.00
2012-12-10,32,26,20,15,-1,-8,73,31,27,23.95,23.80,24,4,24,0.00
2012-12-11,38,27,13,21,10,5,86,53,29,23.95,23.77,19,3,23,0.00
2012-12-12,52,37,28,16,8,2,33,29,21,23.89,23.74,12,2,12,0.00
2012-12-13,48,33,25,16,7,2,39,32,27,23.98,23.89,10,2,10,0.00
2012-12-14,43,33,24,12,7,2,39,33,28,23.89,23.54,10,1,11,0.00
2012-12-15,45,36,26,16,12,6,44,36,28,23.74,23.65,11,2,16,0.00
2012-12-16,40,30,20,13,6,0,57,36,26,23.80,23.65,15,2,15,0.00
2012-12-17,42,38,34,16,10,6,42,31,29,23.74,23.59,23,5,27,0.00
2012-12-18,38,32,24,22,15,7,82,51,33,23.77,23.68,9,2,11,0.00
2012-12-19,24,16,2,19,10,-3,83,79,68,24.07,23.68,22,4,22,0.00
2012-12-20,42,30,14,9,4,-1,79,35,21,24.16,24.04,22,5,23,0.00
2012-12-21,49,33,23,18,8,2,43,36,20,24.16,24.04,13,2,17,0.00
2012-12-22,47,30,19,12,5,0,45,35,22,24.07,23.89,8,3,10,0.00
2012-12-23,46,36,21,12,6,0,45,29,20,23.92,23.80,23,4,26,0.00
2012-12-24,34,25,16,20,10,4,84,56,40,23.89,23.68,10,2,15,0.00
2012-12-25,16,8,0,11,2,-6,79,77,77,24.07,23.89,10,2,10,0.00
2012-12-26,22,14,3,16,9,-3,82,78,76,23.92,23.59,9,1,10,0.00
2012-12-27,24,16,9,19,11,3,83,79,77,23.83,23.62,13,2,13,0.00
2012-12-28,27,15,3,19,3,-4,82,62,39,24.04,23.83,13,2,15,0.00
2012-12-29,30,17,5,6,-2,-12,56,44,31,24.07,23.86,8,2,10,0.00
2012-12-30,32,21,10,9,2,-2,56,43,30,23.95,23.83,12,1,15,0.00
2012-12-31,21,15,7,12,5,-4,77,65,50,23.95,23.86,11,2,13,0.00
2013-1-1,27,18,6,10,1,-5,78,52,31,24.04,23.95,12,2,14,0.00